Time;durP1;ratioP1;P1;durP2;ratioP2;P2;SDS_P1;SDS_P2;PMS_P1;PMS_P2;Temp;Humidity;BMP_temperature;BMP_pressure;BME280_temperature;BME280_humidity;BME280_pressure;Samples;Min_cycle;Max_cycle;Signal;HPM_P1;HPM_P2
2022/06/27 00:01:24;;;;;;;43.70;39.10;;;;;;;;;;5013725;28;20085;-58
2022/06/27 00:03:51;;;;;;;;;;;;;;;;;;5017368;28;20052;-57
2022/06/27 00:06:19;;;;;;;44.55;39.33;;;;;;;;;;5018205;28;19921;-58
2022/06/27 00:08:50;;;;;;;66.93;37.30;;;;;;;;;;5017363;28;20076;-58
2022/06/27 00:11:18;;;;;;;99.55;41.67;;;;;;;;;;5015620;28;20049;-56
2022/06/27 00:13:45;;;;;;;84.30;40.75;;;;;;;;;;5017503;28;20068;-58
2022/06/27 00:16:13;;;;;;;805.47;52.40;;;;;;;;;;5017368;28;20053;-58
2022/06/27 00:19:00;;;;;;;547.65;49.97;;;;;;;;;;5016180;28;20049;-58
2022/06/27 00:21:27;;;;;;;70.03;38.97;;;;;;;;;;5018093;28;20046;-57
2022/06/27 00:23:55;;;;;;;46.08;34.13;;;;;;;;;;5014567;28;20073;-58
2022/06/27 00:26:22;;;;;;;124.22;42.25;;;;;;;;;;5016035;28;20077;-58
2022/06/27 00:28:49;;;;;;;42.35;33.35;;;;;;;;;;5015760;28;20073;-58
2022/06/27 00:31:17;;;;;;;127.22;33.67;;;;;;;;;;5016039;28;20061;-57
2022/06/27 00:33:44;;;;;;;597.80;59.58;;;;;;;;;;5014569;28;20528;-58
2022/06/27 00:36:11;;;;;;;695.45;43.95;;;;;;;;;;5017971;28;20042;-58
2022/06/27 00:38:38;;;;;;;467.40;46.85;;;;;;;;;;5015369;28;20054;-58
2022/06/27 00:41:06;;;;;;;447.50;50.10;;;;;;;;;;5013508;28;20864;-58
2022/06/27 00:43:33;;;;;;;205.85;43.88;;;;;;;;;;5013930;28;20081;-57
2022/06/27 00:46:00;;;;;;;;;;;;;;;;;;5014226;28;20148;-58
2022/06/27 00:48:28;;;;;;;69.00;32.47;;;;;;;;;;5016386;28;20388;-57
2022/06/27 00:50:56;;;;;;;338.83;42.35;;;;;;;;;;5016754;28;20676;-58
2022/06/27 00:53:24;;;;;;;416.00;43.38;;;;;;;;;;5016161;28;20041;-58
2022/06/27 00:55:51;;;;;;;423.05;39.83;;;;;;;;;;5012465;28;20122;-58
2022/06/27 00:58:18;;;;;;;182.35;38.97;;;;;;;;;;5018086;28;20049;-58
2022/06/27 01:00:46;;;;;;;44.40;36.92;;;;;;;;;;5019346;28;20073;-58
2022/06/27 01:03:13;;;;;;;49.55;37.92;;;;;;;;;;5019376;28;20061;-57
2022/06/27 01:05:51;;;;;;;48.80;35.72;;;;;;;;;;5017033;28;20174;-58
2022/06/27 01:08:23;;;;;;;30.33;27.42;;;;;;;;;;5020569;28;20045;-57
2022/06/27 01:10:50;;;;;;;34.42;30.88;;;;;;;;;;5019215;28;20124;-58
2022/06/27 01:13:18;;;;;;;30.50;27.45;;;;;;;;;;5019471;28;20073;-58
2022/06/27 01:15:46;;;;;;;35.63;31.83;;;;;;;;;;5021500;28;20537;-58
2022/06/27 01:18:13;;;;;;;997.20;71.57;;;;;;;;;;5018275;28;20602;-58
2022/06/27 01:20:44;;;;;;;394.27;33.03;;;;;;;;;;5016165;28;20092;-58
2022/06/27 01:23:12;;;;;;;519.88;50.85;;;;;;;;;;5018914;28;20065;-57
2022/06/27 01:25:39;;;;;;;;;;;;;;;;;;5020270;28;20116;-58
2022/06/27 01:28:08;;;;;;;34.47;30.92;;;;;;;;;;5015555;28;19965;-58
2022/06/27 01:30:35;;;;;;;31.38;28.33;;;;;;;;;;5022461;28;20512;-57
2022/06/27 01:33:03;;;;;;;47.03;35.08;;;;;;;;;;5015331;28;21464;-57
2022/06/27 01:35:30;;;;;;;33.22;29.70;;;;;;;;;;5017222;28;20136;-58
2022/06/27 01:37:57;;;;;;;35.85;32.15;;;;;;;;;;5017750;28;20049;-58
2022/06/27 01:40:26;;;;;;;64.55;34.15;;;;;;;;;;5017602;28;20061;-58
2022/06/27 01:42:54;;;;;;;137.20;31.35;;;;;;;;;;5019791;28;20131;-58
2022/06/27 01:45:21;;;;;;;506.58;39.72;;;;;;;;;;5017587;28;20647;-56
2022/06/27 01:47:48;;;;;;;403.30;48.67;;;;;;;;;;5017662;28;20095;-58
2022/06/27 01:50:16;;;;;;;63.55;32.60;;;;;;;;;;5013133;28;20517;-58
2022/06/27 01:52:43;;;;;;;;;;;;;;;;;;5018604;28;20148;-58
2022/06/27 01:55:10;;;;;;;29.88;26.75;;;;;;;;;;5018267;28;19964;-58
2022/06/27 01:57:38;;;;;;;29.98;26.92;;;;;;;;;;5019347;28;22198;-58
2022/06/27 02:00:06;;;;;;;36.80;32.88;;;;;;;;;;5015950;28;20081;-58
2022/06/27 02:02:34;;;;;;;37.75;33.67;;;;;;;;;;5016181;28;20121;-58
2022/06/27 02:05:00;;;;;;;45.10;37.45;;;;;;;;;;5018212;28;20033;-58
2022/06/27 02:07:28;;;;;;;32.15;28.95;;;;;;;;;;5019111;28;20045;-58
2022/06/27 02:09:55;;;;;;;34.10;30.63;;;;;;;;;;5017832;28;20053;-58
2022/06/27 02:12:23;;;;;;;27.52;24.70;;;;;;;;;;5016572;28;20069;-57
2022/06/27 02:14:52;;;;;;;26.27;23.77;;;;;;;;;;5016906;28;20085;-58
2022/06/27 02:17:20;;;;;;;32.90;29.38;;;;;;;;;;5014039;28;20050;-57
2022/06/27 02:19:47;;;;;;;41.58;30.83;;;;;;;;;;5016442;28;20547;-58
2022/06/27 02:22:14;;;;;;;;;;;;;;;;;;5017657;28;20489;-58
2022/06/27 02:24:42;;;;;;;38.97;28.50;;;;;;;;;;5017745;28;19921;-56
2022/06/27 02:27:10;;;;;;;44.53;30.67;;;;;;;;;;5014226;28;20073;-58
2022/06/27 02:29:37;;;;;;;;;;;;;;;;;;5020120;28;20938;-58
2022/06/27 02:32:04;;;;;;;77.68;27.83;;;;;;;;;;5019530;28;20461;-57
2022/06/27 02:34:34;;;;;;;88.32;27.75;;;;;;;;;;5015382;28;20041;-58
2022/06/27 02:37:03;;;;;;;184.30;38.05;;;;;;;;;;5014521;28;20092;-58
2022/06/27 02:39:31;;;;;;;87.95;36.03;;;;;;;;;;5016917;28;20473;-58
2022/06/27 02:41:59;;;;;;;342.40;35.95;;;;;;;;;;5015786;28;20049;-58
2022/06/27 02:44:27;;;;;;;267.88;35.83;;;;;;;;;;5017843;28;20544;-56
2022/06/27 02:46:54;;;;;;;71.75;27.55;;;;;;;;;;5014835;28;20069;-58
2022/06/27 02:49:22;;;;;;;38.92;24.67;;;;;;;;;;5018494;28;20050;-57
2022/06/27 02:51:52;;;;;;;39.33;24.83;;;;;;;;;;5015035;28;20111;-57
2022/06/27 02:54:21;;;;;;;74.50;24.98;;;;;;;;;;5013916;28;20491;-58
2022/06/27 02:57:17;;;;;;;30.60;26.17;;;;;;;;;;5015941;28;20080;-57
2022/06/27 02:59:45;;;;;;;31.05;27.75;;;;;;;;;;5017714;28;20149;-58
2022/06/27 03:02:13;;;;;;;235.13;34.25;;;;;;;;;;5015295;28;20113;-58
2022/06/27 03:04:41;;;;;;;31.15;25.42;;;;;;;;;;5017305;28;20046;-58
2022/06/27 03:07:08;;;;;;;98.30;32.22;;;;;;;;;;5016126;28;20124;-58
2022/06/27 03:09:35;;;;;;;85.57;27.55;;;;;;;;;;5016572;28;20076;-57
2022/06/27 03:12:03;;;;;;;57.15;25.10;;;;;;;;;;5018120;28;20680;-57
2022/06/27 03:14:30;;;;;;;28.90;25.52;;;;;;;;;;5014981;28;20050;-56
2022/06/27 03:16:57;;;;;;;47.42;28.23;;;;;;;;;;5013910;28;20473;-57
2022/06/27 03:19:26;;;;;;;61.65;33.60;;;;;;;;;;5015648;28;20084;-58
2022/06/27 03:21:54;;;;;;;122.90;32.95;;;;;;;;;;5014885;28;20072;-58
2022/06/27 03:24:21;;;;;;;96.45;35.78;;;;;;;;;;5015791;28;20081;-57
2022/06/27 03:26:48;;;;;;;133.95;34.95;;;;;;;;;;5018176;28;20088;-58
2022/06/27 03:29:16;;;;;;;193.98;37.63;;;;;;;;;;5031472;28;20065;-58
2022/06/27 03:31:44;;;;;;;115.13;37.35;;;;;;;;;;5014814;28;20500;-58
2022/06/27 03:34:12;;;;;;;176.88;41.53;;;;;;;;;;5016238;28;20045;-58
2022/06/27 03:36:43;;;;;;;152.73;38.63;;;;;;;;;;5016493;28;20073;-58
2022/06/27 03:39:11;;;;;;;77.97;31.00;;;;;;;;;;5016370;28;20037;-58
2022/06/27 03:41:39;;;;;;;68.15;35.28;;;;;;;;;;5017052;28;20405;-59
2022/06/27 03:44:11;;;;;;;62.78;35.25;;;;;;;;;;5016477;28;20076;-58
2022/06/27 03:46:39;;;;;;;57.15;33.70;;;;;;;;;;5019411;28;20054;-58
2022/06/27 03:51:53;;;;;;;52.13;34.17;;;;;;;;;;5014444;28;20081;-58
2022/06/27 03:54:20;;;;;;;100.20;33.88;;;;;;;;;;5014764;28;20077;-58
2022/06/27 03:56:47;;;;;;;52.58;30.85;;;;;;;;;;5013878;28;20078;-58
2022/06/27 03:59:15;;;;;;;44.33;29.08;;;;;;;;;;5016270;28;20049;-58
2022/06/27 04:01:42;;;;;;;55.40;30.23;;;;;;;;;;5016833;28;20084;-57
2022/06/27 04:04:10;;;;;;;53.70;30.38;;;;;;;;;;5015471;28;20077;-58
2022/06/27 04:06:39;;;;;;;28.77;25.38;;;;;;;;;;5014240;28;20054;-58
2022/06/27 04:09:10;;;;;;;24.42;21.52;;;;;;;;;;5017120;28;20077;-58
2022/06/27 04:11:37;;;;;;;23.42;21.33;;;;;;;;;;5016886;28;20104;-58
2022/06/27 04:14:05;;;;;;;21.13;19.20;;;;;;;;;;5013737;28;20076;-58
2022/06/27 04:16:32;;;;;;;18.52;16.65;;;;;;;;;;5015166;28;20087;-58
2022/06/27 04:18:59;;;;;;;17.48;15.93;;;;;;;;;;5013775;28;20050;-58
2022/06/27 04:21:27;;;;;;;15.43;14.07;;;;;;;;;;5014542;28;20053;-58
2022/06/27 04:23:54;;;;;;;15.50;13.95;;;;;;;;;;5014515;28;20049;-58
2022/06/27 04:26:21;;;;;;;15.75;14.27;;;;;;;;;;5013146;28;20046;-57
2022/06/27 04:28:48;;;;;;;16.73;14.50;;;;;;;;;;5013269;28;20069;-57
2022/06/27 04:31:16;;;;;;;14.82;13.35;;;;;;;;;;5011650;28;20218;-57
2022/06/27 04:33:44;;;;;;;14.48;13.18;;;;;;;;;;5018282;28;20049;-58
2022/06/27 04:36:12;;;;;;;15.05;13.55;;;;;;;;;;5018129;28;20455;-59
2022/06/27 04:38:39;;;;;;;15.32;13.90;;;;;;;;;;5017236;28;20099;-57
2022/06/27 04:41:07;;;;;;;16.23;14.38;;;;;;;;;;5019105;28;20096;-58
2022/06/27 04:43:35;;;;;;;14.70;13.13;;;;;;;;;;5018179;28;20135;-58
2022/06/27 04:46:02;;;;;;;;;;;;;;;;;;5018270;28;20487;-57
2022/06/27 04:48:34;;;;;;;15.55;13.95;;;;;;;;;;5019750;28;19925;-58
2022/06/27 04:51:02;;;;;;;19.45;14.98;;;;;;;;;;5019911;28;20050;-58
2022/06/27 04:53:30;;;;;;;20.42;15.25;;;;;;;;;;5019394;28;20050;-58
2022/06/27 04:55:58;;;;;;;21.95;16.90;;;;;;;;;;5017655;28;20050;-58
2022/06/27 04:58:25;;;;;;;19.48;16.40;;;;;;;;;;5018412;28;20077;-58
2022/06/27 05:00:54;;;;;;;22.90;15.13;;;;;;;;;;5020125;28;20159;-58
2022/06/27 05:03:23;;;;;;;18.75;14.70;;;;;;;;;;5019567;28;20146;-58
2022/06/27 05:05:51;;;;;;;20.83;14.02;;;;;;;;;;5022325;28;20398;-58
2022/06/27 05:08:20;;;;;;;21.00;13.25;;;;;;;;;;5017972;28;20103;-58
2022/06/27 05:10:48;;;;;;;18.42;13.93;;;;;;;;;;5016676;28;20551;-57
2022/06/27 05:13:15;;;;;;;19.27;11.65;;;;;;;;;;5019259;28;20064;-57
2022/06/27 05:15:42;;;;;;;20.35;13.20;;;;;;;;;;5017774;28;20041;-58
2022/06/27 05:18:09;;;;;;;14.88;11.82;;;;;;;;;;5016835;28;20477;-58
2022/06/27 05:20:37;;;;;;;23.55;13.27;;;;;;;;;;5017379;28;20451;-58
2022/06/27 05:23:04;;;;;;;16.63;12.95;;;;;;;;;;5015722;28;20069;-59
2022/06/27 05:25:31;;;;;;;17.73;12.00;;;;;;;;;;5016614;28;20072;-58
2022/06/27 05:28:01;;;;;;;21.13;13.23;;;;;;;;;;5019031;28;20663;-58
2022/06/27 05:30:29;;;;;;;14.90;11.23;;;;;;;;;;5018534;28;20099;-58
2022/06/27 05:32:57;;;;;;;25.95;12.23;;;;;;;;;;5019758;28;20065;-57
2022/06/27 05:35:26;;;;;;;16.08;12.55;;;;;;;;;;5020948;28;20509;-57
2022/06/27 05:37:54;;;;;;;19.08;11.73;;;;;;;;;;5016317;28;20051;-58
2022/06/27 05:40:21;;;;;;;;;;;;;;;;;;5017617;28;20046;-58
2022/06/27 05:42:49;;;;;;;17.65;12.32;;;;;;;;;;5016025;28;19960;-58
2022/06/27 05:45:17;;;;;;;16.13;13.05;;;;;;;;;;5016149;28;20077;-57
2022/06/27 05:47:44;;;;;;;18.38;12.88;;;;;;;;;;5018535;28;20615;-57
2022/06/27 05:50:16;;;;;;;16.15;12.95;;;;;;;;;;5019289;28;20046;-58
2022/06/27 05:52:43;;;;;;;19.73;12.45;;;;;;;;;;5020905;28;20053;-57
2022/06/27 05:55:11;;;;;;;15.98;11.90;;;;;;;;;;5018756;28;20614;-57
2022/06/27 05:57:39;;;;;;;16.65;13.65;;;;;;;;;;5019255;28;20084;-57
2022/06/27 06:00:08;;;;;;;17.52;12.90;;;;;;;;;;5016144;28;20076;-58
2022/06/27 06:02:35;;;;;;;19.63;12.70;;;;;;;;;;5012877;28;20075;-58
2022/06/27 06:05:03;;;;;;;;;;;;;;;;;;5016460;28;20124;-58
2022/06/27 06:07:30;;;;;;;15.80;12.60;;;;;;;;;;5016534;28;19957;-58
2022/06/27 06:09:57;;;;;;;18.55;13.15;;;;;;;;;;5018035;28;20065;-58
2022/06/27 06:12:26;;;;;;;;;;;;;;;;;;5015851;28;20115;-58
2022/06/27 06:14:55;;;;;;;15.15;13.35;;;;;;;;;;5015081;28;19921;-58
2022/06/27 06:17:23;;;;;;;14.52;12.68;;;;;;;;;;5014815;28;20061;-58
2022/06/27 06:19:56;;;;;;;19.42;12.70;;;;;;;;;;5016111;28;20088;-58
2022/06/27 06:22:24;;;;;;;16.75;13.10;;;;;;;;;;5024570;28;20099;-59
2022/06/27 06:24:52;;;;;;;16.48;11.82;;;;;;;;;;5021173;28;20118;-58
2022/06/27 06:27:20;;;;;;;;;;;;;;;;;;5016065;28;20532;-58
2022/06/27 06:29:48;;;;;;;;;;;;;;;;;;5017841;28;20392;-58
2022/06/27 06:32:15;;;;;;;16.05;12.07;;;;;;;;;;5015024;28;21817;-58
2022/06/27 06:34:43;;;;;;;13.40;11.98;;;;;;;;;;5019165;28;20073;-58
2022/06/27 06:37:10;;;;;;;14.52;11.43;;;;;;;;;;5016195;28;20459;-59
2022/06/27 06:39:40;;;;;;;15.40;11.38;;;;;;;;;;5017950;28;20565;-59
2022/06/27 06:42:07;;;;;;;14.48;12.18;;;;;;;;;;5014646;28;20042;-58
2022/06/27 06:44:35;;;;;;;14.65;12.13;;;;;;;;;;5019852;28;20235;-59
2022/06/27 06:47:02;;;;;;;;;;;;;;;;;;5017767;28;20053;-58
2022/06/27 06:49:30;;;;;;;16.67;11.35;;;;;;;;;;5019765;28;19928;-59
2022/06/27 06:51:58;;;;;;;;;;;;;;;;;;5017445;28;20081;-59
2022/06/27 06:54:26;;;;;;;13.60;11.50;;;;;;;;;;5017755;28;20285;-59
2022/06/27 06:56:53;;;;;;;;;;;;;;;;;;5019149;28;20080;-58
2022/06/27 06:59:21;;;;;;;12.93;11.07;;;;;;;;;;5012753;28;19925;-58
2022/06/27 07:01:48;;;;;;;11.68;10.10;;;;;;;;;;5017916;28;20504;-59
2022/06/27 07:04:16;;;;;;;14.38;11.30;;;;;;;;;;5014555;28;20464;-59
2022/06/27 07:06:45;;;;;;;13.27;11.05;;;;;;;;;;5014479;28;20649;-59
2022/06/27 07:09:12;;;;;;;15.07;10.63;;;;;;;;;;5017853;28;20132;-59
2022/06/27 07:11:40;;;;;;;15.45;10.75;;;;;;;;;;5014924;28;20045;-59
2022/06/27 07:14:07;;;;;;;13.57;9.90;;;;;;;;;;5014105;28;20046;-58
2022/06/27 07:16:35;;;;;;;;;;;;;;;;;;5019378;28;20123;-58
2022/06/27 07:19:03;;;;;;;12.18;10.73;;;;;;;;;;5018178;28;19931;-58
2022/06/27 07:21:31;;;;;;;14.65;10.73;;;;;;;;;;5015720;28;20142;-58
2022/06/27 07:24:00;;;;;;;10.23;9.32;;;;;;;;;;5018468;28;20038;-58
2022/06/27 07:26:29;;;;;;;13.15;9.57;;;;;;;;;;5015236;28;20077;-58
2022/06/27 07:28:57;;;;;;;11.55;10.23;;;;;;;;;;5013461;28;20051;-59
2022/06/27 07:31:24;;;;;;;11.40;9.52;;;;;;;;;;5015355;28;20057;-58
2022/06/27 07:33:54;;;;;;;;;;;;;;;;;;5017104;28;20072;-57
2022/06/27 07:36:25;;;;;;;13.68;9.75;;;;;;;;;;5012164;28;19925;-58
2022/06/27 07:38:54;;;;;;;11.93;9.93;;;;;;;;;;5017510;28;20033;-58
2022/06/27 07:41:23;;;;;;;12.63;9.90;;;;;;;;;;5015477;28;20071;-58
2022/06/27 07:43:51;;;;;;;10.65;9.55;;;;;;;;;;5015145;28;20080;-58
2022/06/27 07:46:20;;;;;;;;;;;;;;;;;;5016300;28;20532;-59
2022/06/27 07:48:49;;;;;;;11.50;10.10;;;;;;;;;;5016935;28;19925;-58
2022/06/27 07:51:19;;;;;;;12.40;9.02;;;;;;;;;;5017343;28;20448;-59
2022/06/27 07:53:48;;;;;;;12.10;9.52;;;;;;;;;;5017435;28;20049;-58
2022/06/27 07:56:16;;;;;;;11.05;9.93;;;;;;;;;;5016691;28;20064;-58
2022/06/27 07:58:55;;;;;;;11.60;10.13;;;;;;;;;;5017655;28;20127;-58
2022/06/27 08:01:23;;;;;;;11.23;10.05;;;;;;;;;;5017079;28;20595;-58
2022/06/27 08:03:51;;;;;;;11.35;9.30;;;;;;;;;;5016172;28;20096;-58
2022/06/27 08:06:20;;;;;;;11.25;10.00;;;;;;;;;;5015062;28;20054;-58
2022/06/27 08:08:49;;;;;;;13.13;10.63;;;;;;;;;;5016023;28;20192;-58
2022/06/27 08:11:17;;;;;;;11.65;10.45;;;;;;;;;;5017747;28;20462;-58
2022/06/27 08:13:45;;;;;;;16.27;10.45;;;;;;;;;;5016269;28;20050;-58
2022/06/27 08:16:14;;;;;;;12.95;10.20;;;;;;;;;;5016877;28;20562;-58
2022/06/27 08:18:43;;;;;;;14.45;10.48;;;;;;;;;;5012620;28;20054;-58
2022/06/27 08:21:10;;;;;;;14.70;10.73;;;;;;;;;;5016543;28;20050;-59
2022/06/27 08:23:38;;;;;;;14.57;10.32;;;;;;;;;;5017293;28;20152;-58
2022/06/27 08:26:07;;;;;;;10.85;9.70;;;;;;;;;;5015766;28;20087;-59
2022/06/27 08:28:36;;;;;;;11.18;9.80;;;;;;;;;;5016732;28;20038;-58
2022/06/27 08:31:07;;;;;;;11.88;9.45;;;;;;;;;;5014851;28;20076;-59
2022/06/27 08:33:35;;;;;;;10.77;9.68;;;;;;;;;;5014218;28;20053;-58
2022/06/27 08:36:04;;;;;;;13.43;9.93;;;;;;;;;;5019969;28;20490;-59
2022/06/27 08:38:48;;;;;;;10.50;9.40;;;;;;;;;;5012373;28;20313;-59
2022/06/27 08:41:16;;;;;;;11.40;8.55;;;;;;;;;;5012074;28;20046;-58
2022/06/27 08:43:45;;;;;;;12.00;9.07;;;;;;;;;;5017357;28;20049;-59
2022/06/27 08:46:15;;;;;;;10.57;8.98;;;;;;;;;;5014521;28;20582;-58
2022/06/27 08:48:45;;;;;;;13.65;8.75;;;;;;;;;;5013947;28;20052;-59
2022/06/27 08:51:13;;;;;;;10.43;9.10;;;;;;;;;;5015274;28;20049;-59
2022/06/27 08:53:41;;;;;;;12.98;9.15;;;;;;;;;;5016563;28;20082;-59
2022/06/27 08:56:12;;;;;;;11.82;8.60;;;;;;;;;;5014822;28;20151;-59
2022/06/27 08:58:41;;;;;;;11.43;8.25;;;;;;;;;;5012512;28;20050;-59
2022/06/27 09:01:12;;;;;;;9.25;7.63;;;;;;;;;;5016003;28;20457;-59
2022/06/27 09:03:40;;;;;;;10.70;7.88;;;;;;;;;;5014493;28;20054;-59
2022/06/27 09:06:07;;;;;;;;;;;;;;;;;;5017355;28;20473;-59
2022/06/27 09:08:37;;;;;;;9.23;8.23;;;;;;;;;;5012410;28;20006;-59
2022/06/27 09:11:04;;;;;;;15.07;8.20;;;;;;;;;;5017822;28;20096;-59
2022/06/27 09:13:32;;;;;;;10.38;8.32;;;;;;;;;;5012887;28;20062;-59
2022/06/27 09:15:59;;;;;;;;;;;;;;;;;;5012830;28;20042;-59
2022/06/27 09:18:28;;;;;;;10.30;8.25;;;;;;;;;;5019577;28;20464;-59
2022/06/27 09:20:57;;;;;;;11.30;8.27;;;;;;;;;;5018558;28;20346;-59
2022/06/27 09:23:35;;;;;;;15.75;8.68;;;;;;;;;;5017359;28;20141;-59
2022/06/27 09:26:05;;;;;;;11.88;8.23;;;;;;;;;;5018481;28;20046;-59
2022/06/27 09:28:52;;;;;;;12.88;7.50;;;;;;;;;;5015321;28;20115;-60
2022/06/27 09:31:29;;;;;;;12.55;7.72;;;;;;;;;;5018297;28;20077;-59
2022/06/27 09:33:59;;;;;;;9.48;7.57;;;;;;;;;;5019074;28;20099;-59
2022/06/27 09:36:28;;;;;;;9.77;7.50;;;;;;;;;;5016971;28;20503;-59
2022/06/27 09:38:56;;;;;;;8.57;7.03;;;;;;;;;;5018055;28;20046;-59
2022/06/27 09:41:23;;;;;;;;;;;;;;;;;;5016041;28;20088;-59
2022/06/27 09:43:50;;;;;;;11.55;7.53;;;;;;;;;;5014677;28;19975;-60
2022/06/27 09:46:18;;;;;;;11.32;7.07;;;;;;;;;;5014860;28;20140;-60
2022/06/27 09:48:46;;;;;;;12.02;8.15;;;;;;;;;;5018197;28;20049;-60
2022/06/27 09:51:16;;;;;;;9.55;7.53;;;;;;;;;;5012748;28;20087;-60
2022/06/27 09:53:50;;;;;;;20.30;7.80;;;;;;;;;;5018440;28;20073;-60
2022/06/27 09:56:19;;;;;;;13.35;7.68;;;;;;;;;;5016437;28;20088;-59
2022/06/27 09:58:47;;;;;;;10.18;7.53;;;;;;;;;;5016336;28;20139;-59
2022/06/27 10:01:35;;;;;;;11.77;8.07;;;;;;;;;;5021069;28;20053;-59
2022/06/27 10:04:04;;;;;;;10.23;7.85;;;;;;;;;;5015086;28;20053;-60
2022/06/27 10:06:31;;;;;;;12.60;7.53;;;;;;;;;;5019407;28;20385;-60
2022/06/27 10:09:00;;;;;;;9.45;8.45;;;;;;;;;;5018923;28;20417;-60
2022/06/27 10:11:28;;;;;;;10.45;8.55;;;;;;;;;;5014673;28;20566;-59
2022/06/27 10:14:32;;;;;;;11.15;8.25;;;;;;;;;;5016915;28;20069;-60
2022/06/27 10:17:00;;;;;;;10.40;8.40;;;;;;;;;;5035378;28;20052;-60
2022/06/27 10:19:28;;;;;;;14.30;8.75;;;;;;;;;;5019386;28;20139;-59
2022/06/27 10:21:56;;;;;;;10.38;8.85;;;;;;;;;;5018219;28;20045;-60
2022/06/27 10:24:24;;;;;;;14.15;8.75;;;;;;;;;;5021356;28;20564;-59
2022/06/27 10:26:52;;;;;;;16.65;9.00;;;;;;;;;;5018949;28;20057;-60
2022/06/27 10:29:29;;;;;;;16.20;8.85;;;;;;;;;;5013350;28;20045;-59
2022/06/27 10:31:56;;;;;;;12.95;9.55;;;;;;;;;;5017342;28;20062;-60
2022/06/27 10:34:39;;;;;;;13.25;9.13;;;;;;;;;;5016938;28;20045;-60
2022/06/27 10:37:25;;;;;;;11.32;9.27;;;;;;;;;;5015022;28;20524;-60
2022/06/27 10:39:52;;;;;;;14.75;9.05;;;;;;;;;;5017737;28;20085;-60
2022/06/27 10:42:45;;;;;;;11.85;8.52;;;;;;;;;;5014104;28;20050;-60
2022/06/27 10:45:21;;;;;;;10.57;7.80;;;;;;;;;;5018924;28;20500;-60
2022/06/27 10:47:49;;;;;;;8.80;7.90;;;;;;;;;;5018416;28;20156;-60
2022/06/27 10:50:20;;;;;;;12.00;8.88;;;;;;;;;;5014359;28;20077;-60
2022/06/27 10:52:48;;;;;;;8.82;7.90;;;;;;;;;;5017653;28;20096;-60
2022/06/27 10:55:26;;;;;;;13.77;8.27;;;;;;;;;;5015782;28;20104;-59
2022/06/27 10:57:54;;;;;;;10.00;8.45;;;;;;;;;;5016997;28;20079;-60
2022/06/27 11:00:41;;;;;;;10.30;7.20;;;;;;;;;;5018680;28;20053;-59
2022/06/27 11:03:22;;;;;;;11.15;7.47;;;;;;;;;;5015131;28;20050;-59
2022/06/27 11:05:55;;;;;;;9.18;7.75;;;;;;;;;;5018170;28;20042;-59
2022/06/27 11:08:24;;;;;;;9.93;7.50;;;;;;;;;;5016117;28;20131;-60
2022/06/27 11:10:52;;;;;;;12.00;7.80;;;;;;;;;;5016414;28;20085;-59
2022/06/27 11:13:39;;;;;;;10.10;8.77;;;;;;;;;;5014854;28;20103;-59
2022/06/27 11:16:07;;;;;;;12.70;8.25;;;;;;;;;;5016735;28;20075;-59
2022/06/27 11:18:45;;;;;;;8.90;8.10;;;;;;;;;;5015700;28;20438;-59
2022/06/27 11:21:13;;;;;;;16.05;8.70;;;;;;;;;;5017273;28;20073;-60
2022/06/27 11:24:01;;;;;;;14.10;9.20;;;;;;;;;;5016220;28;20524;-60
2022/06/27 11:26:30;;;;;;;9.63;8.68;;;;;;;;;;5015715;28;20131;-59
2022/06/27 11:32:11;;;;;;;11.93;9.73;;;;;;;;;;5014777;28;20073;-60
2022/06/27 11:34:40;;;;;;;12.35;8.40;;;;;;;;;;5017407;28;20390;-59
2022/06/27 11:37:15;;;;;;;12.48;9.25;;;;;;;;;;5015793;28;20118;-59
2022/06/27 11:39:43;;;;;;;10.77;8.82;;;;;;;;;;5015011;28;20111;-59
2022/06/27 11:42:10;;;;;;;13.90;8.45;;;;;;;;;;5017649;28;20076;-59
2022/06/27 11:45:01;;;;;;;11.90;8.82;;;;;;;;;;5015600;28;20045;-59
2022/06/27 11:47:29;;;;;;;13.13;9.27;;;;;;;;;;5015210;28;20096;-59
2022/06/27 11:49:56;;;;;;;;;;;;;;;;;;5015256;28;20120;-59
2022/06/27 11:52:34;;;;;;;13.35;9.30;;;;;;;;;;5017029;28;20421;-59
2022/06/27 11:55:22;;;;;;;12.77;8.88;;;;;;;;;;5017112;28;20120;-59
2022/06/27 11:57:50;;;;;;;13.98;9.50;;;;;;;;;;5017049;28;20049;-60
2022/06/27 12:00:18;;;;;;;14.85;8.50;;;;;;;;;;5012879;28;20120;-59
2022/06/27 12:02:51;;;;;;;14.82;9.18;;;;;;;;;;5013972;28;20809;-59
2022/06/27 12:05:23;;;;;;;15.55;9.13;;;;;;;;;;5016676;28;20053;-59
2022/06/27 12:08:00;;;;;;;10.40;8.52;;;;;;;;;;5016283;28;20065;-59
2022/06/27 12:13:41;;;;;;;10.73;9.35;;;;;;;;;;5018222;28;21051;-59
2022/06/27 12:16:10;;;;;;;9.95;8.25;;;;;;;;;;5013850;28;20099;-59
2022/06/27 12:18:40;;;;;;;11.20;8.73;;;;;;;;;;5016320;28;20509;-59
2022/06/27 12:21:07;;;;;;;15.27;8.52;;;;;;;;;;5013995;28;20054;-59
2022/06/27 12:23:35;;;;;;;11.95;8.50;;;;;;;;;;5016340;28;20053;-59
2022/06/27 12:26:02;;;;;;;;;;;;;;;;;;5015191;28;20132;-58
2022/06/27 12:28:29;;;;;;;13.85;9.77;;;;;;;;;;5014641;28;20522;-60
2022/06/27 12:30:56;;;;;;;13.75;8.73;;;;;;;;;;5016110;28;20041;-59
2022/06/27 12:33:24;;;;;;;10.93;8.43;;;;;;;;;;5017217;28;20091;-60
2022/06/27 12:35:51;;;;;;;;;;;;;;;;;;5018499;28;20076;-60
2022/06/27 12:38:19;;;;;;;10.77;8.25;;;;;;;;;;5016451;28;20043;-60
2022/06/27 12:40:46;;;;;;;9.70;8.23;;;;;;;;;;5014573;28;20141;-59
2022/06/27 12:43:14;;;;;;;10.20;9.10;;;;;;;;;;5013074;28;20045;-60
2022/06/27 12:45:41;;;;;;;13.25;9.07;;;;;;;;;;5016542;28;20085;-59
2022/06/27 12:48:16;;;;;;;9.43;8.38;;;;;;;;;;5015586;28;20057;-60
2022/06/27 12:50:43;;;;;;;14.65;8.02;;;;;;;;;;5016905;28;20132;-59
2022/06/27 12:53:10;;;;;;;12.65;8.73;;;;;;;;;;5010960;28;20065;-59
2022/06/27 12:55:38;;;;;;;9.82;8.10;;;;;;;;;;5020641;28;21531;-59
2022/06/27 12:58:05;;;;;;;10.95;8.00;;;;;;;;;;5018406;28;20046;-60
2022/06/27 13:00:32;;;;;;;;;;;;;;;;;;5020352;28;20431;-59
2022/06/27 13:03:00;;;;;;;16.17;8.48;;;;;;;;;;5016752;28;19971;-59
2022/06/27 13:05:35;;;;;;;12.60;8.90;;;;;;;;;;5019145;28;20053;-60
2022/06/27 13:08:02;;;;;;;10.00;8.23;;;;;;;;;;5017556;28;20111;-59
2022/06/27 13:10:29;;;;;;;11.30;8.55;;;;;;;;;;5016670;28;20081;-60
2022/06/27 13:12:57;;;;;;;11.18;8.85;;;;;;;;;;5017368;28;20189;-59
2022/06/27 13:15:24;;;;;;;13.13;8.68;;;;;;;;;;5018233;28;20867;-60
2022/06/27 13:17:51;;;;;;;10.82;8.32;;;;;;;;;;5015407;28;20111;-59
2022/06/27 13:20:19;;;;;;;8.77;7.90;;;;;;;;;;5015847;28;20136;-59
2022/06/27 13:22:46;;;;;;;9.20;8.30;;;;;;;;;;5019461;28;20461;-60
2022/06/27 13:25:13;;;;;;;11.68;8.63;;;;;;;;;;5018190;28;20540;-60
2022/06/27 13:27:41;;;;;;;9.90;8.90;;;;;;;;;;5014702;28;20509;-60
2022/06/27 13:30:09;;;;;;;9.90;8.45;;;;;;;;;;5017949;28;20121;-59
2022/06/27 13:32:37;;;;;;;13.35;8.00;;;;;;;;;;5019044;28;20076;-60
2022/06/27 13:35:05;;;;;;;8.13;7.18;;;;;;;;;;5018504;28;20129;-60
2022/06/27 13:37:35;;;;;;;8.68;7.78;;;;;;;;;;5017954;28;20527;-60
2022/06/27 13:40:04;;;;;;;9.38;8.20;;;;;;;;;;5017480;28;20107;-60
2022/06/27 13:42:32;;;;;;;13.65;8.20;;;;;;;;;;5018248;28;20096;-60
2022/06/27 13:44:59;;;;;;;15.52;8.52;;;;;;;;;;5017506;28;20504;-59
2022/06/27 13:47:26;;;;;;;10.00;7.45;;;;;;;;;;5015652;28;20533;-59
2022/06/27 13:49:54;;;;;;;11.50;8.23;;;;;;;;;;5020117;28;20161;-59
2022/06/27 13:52:22;;;;;;;10.38;8.45;;;;;;;;;;5020498;28;20060;-59
2022/06/27 13:54:49;;;;;;;13.15;8.07;;;;;;;;;;5018557;28;20469;-59
2022/06/27 13:57:17;;;;;;;8.68;7.78;;;;;;;;;;5018057;28;20336;-60
2022/06/27 13:59:48;;;;;;;10.65;8.48;;;;;;;;;;5018130;28;20053;-59
2022/06/27 14:02:17;;;;;;;8.82;7.93;;;;;;;;;;5019207;28;20103;-59
2022/06/27 14:04:44;;;;;;;12.40;7.80;;;;;;;;;;5019680;28;20089;-59
2022/06/27 14:09:58;;;;;;;9.25;8.35;;;;;;;;;;5019111;28;20508;-59
2022/06/27 14:12:25;;;;;;;12.45;8.40;;;;;;;;;;5016205;28;20108;-59
2022/06/27 14:14:52;;;;;;;11.38;8.07;;;;;;;;;;5016572;28;20084;-59
2022/06/27 14:17:20;;;;;;;8.55;7.75;;;;;;;;;;5018022;28;20042;-59
2022/06/27 14:19:47;;;;;;;10.38;7.65;;;;;;;;;;5015202;28;20065;-59
2022/06/27 14:22:15;;;;;;;10.30;7.28;;;;;;;;;;5014009;28;20567;-60
2022/06/27 14:24:42;;;;;;;9.38;7.18;;;;;;;;;;5016445;28;20099;-59
2022/06/27 14:27:10;;;;;;;11.57;8.40;;;;;;;;;;5017351;28;20081;-59
2022/06/27 14:29:37;;;;;;;8.48;7.68;;;;;;;;;;5017872;28;20141;-59
2022/06/27 14:32:05;;;;;;;8.13;7.32;;;;;;;;;;5014280;28;20049;-59
2022/06/27 14:34:32;;;;;;;11.55;7.72;;;;;;;;;;5017373;28;20505;-58
2022/06/27 17:38:10;;;;;;;15.00;11.15;;;;;;;;;;4778279;27;8312539;-61
2022/06/27 17:40:44;;;;;;;13.30;11.40;;;;;;;;;;5036249;28;20081;-60
2022/06/27 17:43:11;;;;;;;13.50;12.20;;;;;;;;;;5058392;28;20076;-62
2022/06/27 17:45:39;;;;;;;;;;;;;;;;;;5057797;28;20052;-61
2022/06/27 17:48:12;;;;;;;18.33;14.15;;;;;;;;;;5065902;28;19930;-61
2022/06/27 17:50:39;;;;;;;;;;;;;;;;;;5074787;28;20060;-61
2022/06/27 17:53:07;;;;;;;15.35;13.25;;;;;;;;;;5076293;28;20688;-62
2022/06/27 17:55:41;;;;;;;13.70;12.35;;;;;;;;;;5075373;28;20507;-63
2022/06/27 17:58:08;;;;;;;;;;;;;;;;;;5080487;28;20635;-63